createdAt,value
2022-07-27T00:01:13.049Z,20.52
2022-07-27T00:03:41.210Z,21.43
2022-07-27T00:06:08.778Z,20.97
2022-07-27T00:08:36.391Z,20.52
2022-07-27T00:11:04.923Z,20.65
2022-07-27T00:13:32.362Z,21.30
2022-07-27T00:15:59.881Z,19.69
2022-07-27T00:18:27.679Z,20.60
2022-07-27T00:20:55.144Z,20.90
2022-07-27T00:23:22.541Z,20.18
2022-07-27T00:25:50.289Z,19.72
2022-07-27T00:28:17.706Z,20.75
2022-07-27T00:30:45.224Z,20.30
2022-07-27T00:33:16.988Z,20.14
2022-07-27T00:35:45.094Z,19.52
2022-07-27T00:38:12.770Z,19.40
2022-07-27T00:40:40.362Z,19.49
2022-07-27T00:43:07.796Z,19.57
2022-07-27T00:45:35.570Z,20.28
2022-07-27T00:48:02.981Z,19.76
2022-07-27T00:50:30.496Z,19.99
2022-07-27T00:52:58.398Z,20.26
2022-07-27T00:55:27.572Z,19.77
2022-07-27T00:57:59.409Z,20.07
2022-07-27T01:00:28.200Z,20.03
2022-07-27T01:02:57.453Z,19.39
2022-07-27T01:05:36.148Z,20.17
2022-07-27T01:08:06.976Z,19.31
2022-07-27T01:10:34.808Z,19.24
2022-07-27T01:13:02.709Z,19.11
2022-07-27T01:15:30.981Z,19.56
2022-07-27T01:18:04.544Z,20.01
2022-07-27T01:20:33.780Z,19.20
2022-07-27T01:23:01.234Z,19.72
2022-07-27T01:25:28.653Z,19.78
2022-07-27T01:27:56.370Z,20.02
2022-07-27T01:30:32.621Z,19.57
2022-07-27T01:33:04.608Z,20.11
2022-07-27T01:35:32.790Z,19.43
2022-07-27T01:38:00.714Z,19.48
2022-07-27T01:40:28.408Z,19.70
2022-07-27T01:42:55.833Z,19.81
2022-07-27T01:45:23.575Z,19.25
2022-07-27T01:47:51.023Z,19.24
2022-07-27T01:50:18.489Z,18.71
2022-07-27T01:52:46.166Z,18.56
2022-07-27T01:55:13.652Z,19.18
2022-07-27T01:57:41.069Z,18.64
2022-07-27T02:00:11.380Z,18.85
2022-07-27T02:02:40.133Z,18.57
2022-07-27T02:05:11.950Z,18.39
2022-07-27T02:07:42.460Z,18.74
2022-07-27T02:10:10.545Z,18.35
2022-07-27T02:12:38.399Z,18.06
2022-07-27T02:15:22.004Z,18.77
2022-07-27T02:17:53.207Z,18.27
2022-07-27T02:20:24.726Z,18.51
2022-07-27T02:22:52.335Z,18.34
2022-07-27T02:25:20.268Z,18.01
2022-07-27T02:27:48.120Z,18.00
2022-07-27T02:30:17.861Z,17.85
2022-07-27T02:32:45.773Z,18.13
2022-07-27T02:35:19.875Z,18.62
2022-07-27T02:37:49.017Z,19.09
2022-07-27T02:40:18.690Z,18.79
2022-07-27T02:42:47.071Z,19.26
2022-07-27T02:45:15.624Z,18.64
2022-07-27T02:47:44.075Z,18.92
2022-07-27T02:50:11.972Z,19.30
2022-07-27T02:52:39.982Z,19.20
2022-07-27T02:55:08.094Z,18.74
2022-07-27T02:57:37.900Z,18.99
2022-07-27T03:00:07.761Z,17.92
2022-07-27T03:02:35.598Z,18.23
2022-07-27T03:05:07.798Z,18.40
2022-07-27T03:07:35.678Z,18.13
2022-07-27T03:10:03.213Z,18.69
2022-07-27T03:12:31.373Z,18.46
2022-07-27T03:14:59.093Z,18.57
2022-07-27T03:17:26.596Z,18.14
2022-07-27T03:19:54.063Z,17.94
2022-07-27T03:22:21.745Z,18.76
2022-07-27T03:24:49.183Z,19.79
2022-07-27T03:27:16.951Z,20.03
2022-07-27T03:29:44.635Z,19.58
2022-07-27T03:32:12.064Z,19.24
2022-07-27T03:34:39.535Z,18.75
2022-07-27T03:37:07.216Z,18.98
2022-07-27T03:39:34.907Z,18.11
2022-07-27T03:42:02.425Z,17.90
2022-07-27T03:44:30.110Z,18.08
2022-07-27T03:46:57.519Z,18.35
2022-07-27T03:49:25.028Z,18.47
2022-07-27T03:51:52.911Z,18.35
2022-07-27T03:54:20.418Z,18.28
2022-07-27T03:56:47.845Z,18.54
2022-07-27T03:59:16.249Z,18.19
2022-07-27T04:01:43.792Z,18.52
2022-07-27T04:04:11.543Z,19.09
2022-07-27T04:06:39.001Z,19.11
2022-07-27T04:09:08.191Z,18.83
2022-07-27T04:11:37.781Z,19.49
2022-07-27T04:14:12.824Z,19.74
2022-07-27T04:16:41.450Z,19.09
2022-07-27T04:19:09.427Z,18.91
2022-07-27T04:21:37.532Z,19.99
2022-07-27T04:24:05.665Z,19.09
2022-07-27T04:26:33.193Z,19.40
2022-07-27T04:29:00.664Z,19.31
2022-07-27T04:31:28.331Z,19.88
2022-07-27T04:33:55.815Z,19.55
2022-07-27T04:36:23.219Z,19.11
2022-07-27T04:38:50.903Z,19.93
2022-07-27T04:41:18.359Z,19.44
2022-07-27T04:43:45.796Z,20.64
2022-07-27T04:46:16.555Z,20.58
2022-07-27T04:48:49.009Z,19.53
2022-07-27T04:51:18.076Z,20.29
2022-07-27T04:53:52.419Z,19.67
2022-07-27T04:56:26.927Z,20.72
2022-07-27T04:58:56.129Z,20.52
2022-07-27T05:01:23.788Z,19.45
2022-07-27T05:03:52.210Z,20.13
2022-07-27T05:06:19.835Z,20.00
2022-07-27T05:08:47.217Z,19.56
2022-07-27T05:11:14.926Z,19.83
2022-07-27T05:13:42.444Z,19.50
2022-07-27T05:16:10.825Z,19.60
2022-07-27T05:18:38.819Z,20.07
2022-07-27T05:21:06.789Z,20.59
2022-07-27T05:23:34.650Z,20.77
2022-07-27T05:26:02.440Z,20.98
2022-07-27T05:28:29.848Z,20.91
2022-07-27T05:30:57.272Z,21.13
2022-07-27T05:33:25.610Z,20.81
2022-07-27T05:35:53.053Z,21.43
2022-07-27T05:38:21.241Z,22.41
2022-07-27T05:40:49.053Z,21.18
2022-07-27T05:43:16.446Z,22.17
2022-07-27T05:45:43.978Z,22.34
2022-07-27T05:48:11.729Z,22.03
2022-07-27T05:50:39.291Z,21.53
2022-07-27T05:53:06.745Z,21.18
2022-07-27T05:55:34.466Z,22.06
2022-07-27T05:58:02.023Z,22.24
2022-07-27T06:00:29.510Z,22.70
2022-07-27T06:02:57.397Z,23.04
2022-07-27T06:05:24.921Z,22.10
2022-07-27T06:08:08.939Z,22.22
2022-07-27T06:10:37.690Z,22.42
2022-07-27T06:13:07.233Z,22.33
2022-07-27T06:15:35.282Z,22.29
2022-07-27T06:18:03.937Z,22.76
2022-07-27T06:20:31.787Z,22.42
2022-07-27T06:23:00.852Z,23.05
2022-07-27T06:25:34.573Z,22.75
2022-07-27T06:28:04.503Z,22.83
2022-07-27T06:30:32.374Z,23.63
2022-07-27T06:33:00.525Z,23.58
2022-07-27T06:35:27.998Z,24.19
2022-07-27T06:37:55.663Z,24.05
2022-07-27T06:40:26.262Z,24.55
2022-07-27T06:42:56.373Z,24.59
2022-07-27T06:45:24.704Z,25.31
2022-07-27T06:47:52.311Z,26.06
2022-07-27T06:50:20.799Z,26.16
2022-07-27T06:52:49.687Z,25.90
2022-07-27T06:55:17.794Z,26.14
2022-07-27T06:57:46.559Z,25.67
2022-07-27T07:00:14.837Z,25.17
2022-07-27T07:03:08.488Z,26.20
2022-07-27T07:05:45.207Z,25.49
2022-07-27T07:08:14.557Z,25.59
2022-07-27T07:10:44.652Z,25.57
2022-07-27T07:13:12.142Z,26.31
2022-07-27T07:15:40.817Z,26.70
2022-07-27T07:18:09.364Z,27.48
2022-07-27T07:20:37.601Z,27.99
2022-07-27T07:23:05.658Z,28.43
2022-07-27T07:25:33.906Z,28.63
2022-07-27T07:28:02.431Z,29.24
2022-07-27T07:30:30.653Z,29.12
2022-07-27T07:32:58.550Z,30.15
2022-07-27T07:35:27.237Z,31.14
2022-07-27T07:37:54.750Z,31.66
2022-07-27T07:40:42.711Z,32.43
2022-07-27T07:43:13.290Z,32.65
2022-07-27T07:45:51.114Z,34.55
2022-07-27T07:48:21.161Z,35.31
2022-07-27T07:50:52.119Z,36.43
2022-07-27T07:53:24.038Z,36.34
2022-07-27T07:55:53.321Z,34.90
2022-07-27T07:58:20.851Z,34.99
2022-07-27T08:00:48.519Z,35.21
2022-07-27T08:03:16.481Z,34.32
2022-07-27T08:05:43.997Z,35.30
2022-07-27T08:08:11.543Z,35.25
2022-07-27T08:10:39.272Z,36.17
2022-07-27T08:13:06.681Z,34.60
2022-07-27T08:15:35.694Z,34.40
2022-07-27T08:18:05.744Z,35.08
2022-07-27T08:20:33.925Z,33.95
2022-07-27T08:23:01.692Z,36.07
2022-07-27T08:25:29.743Z,36.80
2022-07-27T08:27:57.624Z,35.93
2022-07-27T08:30:25.461Z,36.65
2022-07-27T08:32:59.898Z,36.18
2022-07-27T08:35:28.820Z,35.90
2022-07-27T08:37:57.202Z,36.26
2022-07-27T08:40:43.699Z,36.54
2022-07-27T08:43:18.909Z,36.60
2022-07-27T08:45:54.272Z,36.79
2022-07-27T08:48:24.913Z,35.53
2022-07-27T08:50:53.558Z,34.24
2022-07-27T08:53:22.169Z,33.24
2022-07-27T08:55:50.073Z,33.79
2022-07-27T08:58:17.513Z,33.87
2022-07-27T09:00:48.417Z,34.10
2022-07-27T09:03:20.165Z,33.44
2022-07-27T09:05:50.768Z,33.76
2022-07-27T09:08:30.461Z,34.65
2022-07-27T09:10:59.878Z,33.20
2022-07-27T09:13:34.145Z,33.68
2022-07-27T09:16:23.507Z,33.91
2022-07-27T09:19:02.870Z,33.56
2022-07-27T09:21:30.437Z,33.97
2022-07-27T09:24:18.123Z,33.65
2022-07-27T09:27:02.859Z,33.39
2022-07-27T09:29:34.803Z,33.87
2022-07-27T09:32:14.172Z,33.87
2022-07-27T09:34:42.060Z,33.50
2022-07-27T09:37:12.456Z,34.14
2022-07-27T09:39:40.095Z,33.94
2022-07-27T09:43:02.760Z,33.85
2022-07-27T09:45:04.399Z,34.52
2022-07-27T09:47:33.228Z,34.44
2022-07-27T09:50:21.146Z,34.45
2022-07-27T09:52:48.934Z,34.78
2022-07-27T09:55:20.385Z,34.00
2022-07-27T09:58:06.042Z,34.66
2022-07-27T10:00:34.108Z,35.03
2022-07-27T10:03:01.950Z,35.15
2022-07-27T10:05:29.453Z,34.95
2022-07-27T10:07:56.925Z,34.85
2022-07-27T10:10:24.956Z,34.34
2022-07-27T10:12:55.610Z,34.94
2022-07-27T10:15:25.278Z,35.46
2022-07-27T10:18:01.668Z,35.41
2022-07-27T10:20:30.011Z,35.13
2022-07-27T10:22:58.961Z,35.36
2022-07-27T10:25:32.434Z,35.67
2022-07-27T10:28:13.262Z,35.92
2022-07-27T10:30:40.893Z,35.02
2022-07-27T10:33:42.943Z,35.64
2022-07-27T10:36:19.625Z,35.50
2022-07-27T10:39:07.172Z,36.05
2022-07-27T10:41:43.878Z,36.42
2022-07-27T10:44:23.853Z,36.58
2022-07-27T10:46:54.731Z,36.78
2022-07-27T10:49:26.357Z,36.15
2022-07-27T10:51:55.263Z,36.24
2022-07-27T10:54:30.797Z,36.57
2022-07-27T10:56:59.879Z,35.98
2022-07-27T11:02:42.627Z,36.97
2022-07-27T11:05:53.703Z,36.45
2022-07-27T11:10:48.379Z,36.04
2022-07-27T11:13:20.315Z,35.94
2022-07-27T11:16:04.622Z,36.07
2022-07-27T11:18:45.123Z,36.05
2022-07-27T11:21:26.786Z,36.27
2022-07-27T11:24:00.159Z,35.66
2022-07-27T11:26:29.846Z,35.70
2022-07-27T11:28:57.318Z,35.27
2022-07-27T11:31:52.691Z,35.42
2022-07-27T11:34:14.374Z,36.59
2022-07-27T11:36:50.407Z,35.53
2022-07-27T11:39:54.459Z,36.26
2022-07-27T11:42:17.773Z,36.29
2022-07-27T11:44:49.329Z,36.65
2022-07-27T11:47:19.868Z,36.13
2022-07-27T11:49:47.387Z,36.59
2022-07-27T11:52:17.665Z,36.64
2022-07-27T11:54:51.049Z,36.08
2022-07-27T11:57:20.552Z,36.29
2022-07-27T11:59:48.585Z,35.95
2022-07-27T12:02:18.400Z,35.24
2022-07-27T12:04:50.924Z,35.23
2022-07-27T12:07:36.982Z,35.25
2022-07-27T12:10:06.957Z,36.01
2022-07-27T12:12:36.115Z,36.35
2022-07-27T12:18:06.126Z,36.39
2022-07-27T12:20:35.004Z,35.83
2022-07-27T12:23:07.418Z,36.24
2022-07-27T12:25:36.417Z,35.98
2022-07-27T12:28:06.800Z,36.77
2022-07-27T12:30:48.369Z,37.28
2022-07-27T12:33:35.580Z,37.57
2022-07-27T12:36:05.328Z,37.03
2022-07-27T12:38:41.094Z,37.88
2022-07-27T12:41:08.538Z,37.29
2022-07-27T12:43:36.367Z,37.05
2022-07-27T12:46:14.113Z,37.42
2022-07-27T12:48:43.015Z,37.03
2022-07-27T12:51:11.207Z,36.24
2022-07-27T12:53:39.120Z,35.76
2022-07-27T12:56:10.000Z,35.21
2022-07-27T12:58:37.765Z,35.57
2022-07-27T13:01:06.831Z,35.14
2022-07-27T13:03:37.013Z,35.27
2022-07-27T13:06:09.205Z,35.53
2022-07-27T13:08:38.342Z,35.72
2022-07-27T13:11:05.666Z,35.10
2022-07-27T13:13:33.081Z,34.84
2022-07-27T13:16:01.200Z,34.26
2022-07-27T13:18:28.679Z,34.94
2022-07-27T13:20:56.111Z,35.22
2022-07-27T13:23:23.895Z,33.98
2022-07-27T13:25:51.315Z,34.52
2022-07-27T13:28:18.818Z,33.95
2022-07-27T13:30:46.479Z,33.98
2022-07-27T13:33:13.879Z,33.99
2022-07-27T13:35:41.416Z,33.31
2022-07-27T13:38:13.090Z,34.69
2022-07-27T13:40:45.063Z,34.08
2022-07-27T13:43:12.775Z,33.52
2022-07-27T13:45:43.041Z,33.87
2022-07-27T13:48:12.114Z,34.63
2022-07-27T13:50:40.092Z,34.54
2022-07-27T13:53:07.553Z,34.83
2022-07-27T13:55:35.421Z,34.49
2022-07-27T13:58:03.117Z,34.98
2022-07-27T14:00:30.664Z,34.63
2022-07-27T14:02:58.392Z,34.71
2022-07-27T14:05:25.881Z,36.03
2022-07-27T14:07:55.613Z,35.94
2022-07-27T14:10:32.412Z,35.91
2022-07-27T14:13:08.158Z,36.51
2022-07-27T14:15:55.664Z,35.30
2022-07-27T14:18:24.903Z,33.85
2022-07-27T14:20:53.141Z,35.00
2022-07-27T14:23:21.048Z,34.82
2022-07-27T14:25:48.487Z,34.95
2022-07-27T14:28:16.285Z,35.10
2022-07-27T14:30:44.207Z,35.00
2022-07-27T14:33:11.685Z,35.09
2022-07-27T14:35:40.843Z,34.60
2022-07-27T14:38:10.774Z,35.02
2022-07-27T14:40:38.988Z,34.73
2022-07-27T14:43:06.778Z,35.33
2022-07-27T14:45:44.429Z,35.24
2022-07-27T14:48:28.184Z,35.34
2022-07-27T14:51:05.402Z,35.50
2022-07-27T14:53:33.217Z,34.57
2022-07-27T14:56:00.772Z,35.55
2022-07-27T14:58:28.225Z,33.78
2022-07-27T15:00:56.021Z,33.98
2022-07-27T15:03:23.436Z,34.83
2022-07-27T15:05:51.708Z,34.86
2022-07-27T15:08:20.133Z,34.61
2022-07-27T15:10:48.664Z,35.60
2022-07-27T15:13:17.199Z,34.94
2022-07-27T15:15:48.468Z,35.30
2022-07-27T15:18:18.825Z,34.79
2022-07-27T15:20:49.657Z,34.46
2022-07-27T15:23:17.202Z,34.28
2022-07-27T15:25:44.740Z,33.79
2022-07-27T15:28:12.896Z,34.45
2022-07-27T15:30:40.390Z,35.16
2022-07-27T15:33:07.927Z,35.26
2022-07-27T15:35:35.922Z,34.51
2022-07-27T15:38:03.547Z,33.80
2022-07-27T15:40:37.294Z,33.83
2022-07-27T15:43:06.894Z,34.37
2022-07-27T15:45:38.687Z,33.96
2022-07-27T15:48:08.502Z,34.37
2022-07-27T15:50:37.506Z,34.08
2022-07-27T15:53:05.667Z,33.89
2022-07-27T15:55:35.024Z,33.57
2022-07-27T15:58:03.414Z,33.00
2022-07-27T16:00:34.195Z,32.31
2022-07-27T16:03:05.786Z,32.09
2022-07-27T16:05:33.666Z,32.84
2022-07-27T16:08:01.093Z,32.74
2022-07-27T16:10:29.982Z,33.50
2022-07-27T16:12:57.706Z,33.09
2022-07-27T16:15:45.228Z,31.70
2022-07-27T16:18:13.001Z,31.99
2022-07-27T16:20:40.405Z,32.07
2022-07-27T16:23:18.164Z,31.93
2022-07-27T16:26:08.121Z,31.62
2022-07-27T16:28:39.072Z,31.51
2022-07-27T16:31:08.965Z,31.42
2022-07-27T16:33:36.814Z,31.34
2022-07-27T16:36:05.530Z,31.47
2022-07-27T16:38:33.381Z,31.40
2022-07-27T16:41:00.788Z,31.29
2022-07-27T16:43:37.936Z,31.42
2022-07-27T16:46:08.428Z,31.32
2022-07-27T16:48:42.571Z,31.54
2022-07-27T16:51:12.678Z,31.42
2022-07-27T16:53:41.472Z,31.60
2022-07-27T16:56:09.493Z,31.62
2022-07-27T16:58:37.760Z,31.27
2022-07-27T17:01:06.746Z,31.23
2022-07-27T17:03:34.349Z,31.06
2022-07-27T17:06:06.055Z,30.80
2022-07-27T17:08:35.922Z,30.63
2022-07-27T17:11:06.039Z,30.50
2022-07-27T17:13:34.765Z,30.60
2022-07-27T17:16:04.200Z,30.29
2022-07-27T17:18:38.915Z,29.59
2022-07-27T17:21:07.607Z,29.21
2022-07-27T17:23:38.249Z,29.09
2022-07-27T17:26:07.352Z,29.50
2022-07-27T17:28:38.997Z,29.40
2022-07-27T17:31:09.209Z,29.18
2022-07-27T17:33:38.184Z,29.37
2022-07-27T17:36:09.712Z,28.98
2022-07-27T17:38:46.396Z,28.72
2022-07-27T17:41:14.781Z,28.44
2022-07-27T17:43:42.551Z,28.82
2022-07-27T17:46:11.561Z,28.55
2022-07-27T17:48:39.947Z,28.69
2022-07-27T17:51:08.699Z,28.81
2022-07-27T17:53:36.589Z,28.36
2022-07-27T17:56:04.962Z,28.43
2022-07-27T17:58:32.741Z,28.72
2022-07-27T18:01:00.165Z,28.73
2022-07-27T18:03:28.065Z,28.74
2022-07-27T18:05:55.674Z,28.79
2022-07-27T18:08:23.127Z,28.34
2022-07-27T18:10:51.655Z,28.63
2022-07-27T18:13:19.552Z,28.77
2022-07-27T18:15:47.264Z,28.63
2022-07-27T18:18:16.170Z,28.34
2022-07-27T18:20:46.237Z,28.67
2022-07-27T18:23:15.903Z,28.63
2022-07-27T18:25:45.057Z,28.83
2022-07-27T18:28:16.251Z,28.95
2022-07-27T18:30:45.997Z,27.96
2022-07-27T18:33:14.694Z,27.90
2022-07-27T18:35:43.364Z,27.48
2022-07-27T18:38:11.596Z,27.40
2022-07-27T18:40:42.615Z,27.17
2022-07-27T18:43:10.885Z,27.42
2022-07-27T18:45:39.651Z,27.25
2022-07-27T18:48:10.121Z,26.79
2022-07-27T18:50:39.875Z,26.85
2022-07-27T18:53:08.376Z,27.24
2022-07-27T18:55:36.174Z,26.44
2022-07-27T18:58:04.236Z,26.31
2022-07-27T19:00:33.474Z,26.33
2022-07-27T19:03:01.020Z,26.14
2022-07-27T19:05:40.429Z,26.22
2022-07-27T19:08:11.898Z,26.06
2022-07-27T19:10:42.462Z,26.12
2022-07-27T19:13:11.272Z,26.17
2022-07-27T19:15:39.100Z,26.25
2022-07-27T19:18:07.448Z,26.22
2022-07-27T19:20:36.680Z,26.48
2022-07-27T19:23:05.671Z,26.61
2022-07-27T19:25:33.998Z,26.30
2022-07-27T19:28:03.229Z,26.47
2022-07-27T19:30:31.039Z,26.38
2022-07-27T19:32:58.908Z,26.26
2022-07-27T19:35:26.823Z,26.07
2022-07-27T19:37:54.265Z,25.86
2022-07-27T19:43:09.447Z,25.33
2022-07-27T19:45:37.140Z,25.57
2022-07-27T19:48:05.678Z,25.66
2022-07-27T19:50:33.362Z,25.48
2022-07-27T19:53:04.359Z,25.56
2022-07-27T19:55:31.930Z,25.49
2022-07-27T19:58:00.004Z,25.43
2022-07-27T20:00:27.733Z,25.85
2022-07-27T20:02:55.465Z,25.82
2022-07-27T20:05:23.072Z,25.26
2022-07-27T20:07:50.516Z,25.27
2022-07-27T20:10:21.584Z,24.51
2022-07-27T20:12:48.998Z,25.10
2022-07-27T20:15:16.611Z,25.07
2022-07-27T20:17:44.422Z,25.49
2022-07-27T20:20:12.092Z,25.51
2022-07-27T20:22:41.012Z,25.30
2022-07-27T20:25:10.588Z,23.81
2022-07-27T20:27:38.253Z,23.71
2022-07-27T20:30:06.328Z,23.76
2022-07-27T20:32:34.072Z,24.58
2022-07-27T20:35:02.001Z,24.72
2022-07-27T20:37:29.406Z,24.84
2022-07-27T20:39:57.097Z,25.01
2022-07-27T20:42:24.636Z,25.04
2022-07-27T20:44:52.091Z,24.92
2022-07-27T20:47:20.304Z,25.05
2022-07-27T20:49:47.742Z,24.58
2022-07-27T20:52:15.914Z,24.61
2022-07-27T20:54:43.640Z,24.96
2022-07-27T20:57:11.174Z,25.17
2022-07-27T20:59:38.591Z,25.01
2022-07-27T21:02:07.750Z,25.23
2022-07-27T21:04:35.565Z,24.08
2022-07-27T21:07:03.007Z,24.09
2022-07-27T21:09:31.681Z,23.84
2022-07-27T21:11:59.172Z,23.67
2022-07-27T21:14:26.578Z,23.84
2022-07-27T21:16:54.355Z,24.55
2022-07-27T21:19:22.572Z,24.79
2022-07-27T21:21:50.183Z,23.48
2022-07-27T21:24:19.939Z,23.86
2022-07-27T21:26:49.390Z,23.59
2022-07-27T21:29:17.357Z,23.79
2022-07-27T21:31:49.227Z,23.37
2022-07-27T21:34:19.653Z,23.73
2022-07-27T21:36:48.060Z,23.72
2022-07-27T21:39:16.025Z,23.46
2022-07-27T21:41:43.638Z,23.38
2022-07-27T21:44:11.648Z,23.92
2022-07-27T21:46:39.394Z,23.72
2022-07-27T21:49:06.917Z,23.58
2022-07-27T21:51:34.737Z,23.24
2022-07-27T21:54:02.186Z,23.62
2022-07-27T21:56:29.710Z,23.83
2022-07-27T21:58:57.429Z,23.84
2022-07-27T22:01:24.929Z,23.88
2022-07-27T22:03:52.714Z,23.94
2022-07-27T22:06:20.323Z,24.09
2022-07-27T22:08:47.950Z,24.53
2022-07-27T22:11:15.634Z,24.51
2022-07-27T22:13:43.047Z,24.55
2022-07-27T22:16:12.594Z,24.53
2022-07-27T22:18:40.496Z,24.76
2022-07-27T22:21:08.897Z,24.59
2022-07-27T22:23:36.338Z,25.11
2022-07-27T22:26:04.069Z,25.42
2022-07-27T22:28:31.539Z,25.12
2022-07-27T22:31:22.220Z,25.68
2022-07-27T22:33:47.692Z,25.57
2022-07-27T22:36:15.461Z,25.31
2022-07-27T22:38:42.918Z,25.26
2022-07-27T22:41:10.692Z,25.45
2022-07-27T22:43:38.132Z,25.52
2022-07-27T22:46:05.898Z,25.62
2022-07-27T22:48:33.681Z,25.59
2022-07-27T22:51:01.139Z,25.69
2022-07-27T22:53:28.552Z,25.59
2022-07-27T22:55:56.350Z,25.66
2022-07-27T22:58:23.771Z,25.06
2022-07-27T23:00:53.591Z,24.76
2022-07-27T23:03:25.156Z,25.10
2022-07-27T23:05:52.582Z,24.82
2022-07-27T23:08:20.003Z,24.72
2022-07-27T23:10:47.878Z,24.39
2022-07-27T23:13:16.656Z,24.42
2022-07-27T23:15:45.002Z,24.20
2022-07-27T23:18:13.071Z,24.03
2022-07-27T23:20:41.717Z,23.99
2022-07-27T23:23:15.717Z,23.60
2022-07-27T23:25:49.055Z,23.45
2022-07-27T23:28:16.722Z,23.87
2022-07-27T23:30:44.592Z,24.91
2022-07-27T23:33:12.216Z,25.08
2022-07-27T23:35:39.678Z,25.12
2022-07-27T23:38:07.357Z,25.09
2022-07-27T23:40:35.173Z,24.23
2022-07-27T23:43:02.615Z,24.53
2022-07-27T23:45:30.415Z,24.84
2022-07-27T23:47:57.855Z,25.44
2022-07-27T23:50:26.194Z,25.78
2022-07-27T23:52:53.923Z,25.62
2022-07-27T23:55:21.352Z,25.56
2022-07-27T23:57:48.813Z,25.39
